createdAt,value
2022-11-28T00:04:43.389Z,4
2022-11-28T00:09:55.801Z,4
2022-11-28T00:15:07.905Z,4
2022-11-28T00:20:19.700Z,4
2022-11-28T00:25:37.561Z,4
2022-11-28T00:30:51.440Z,4
2022-11-28T00:36:03.311Z,4
2022-11-28T00:41:15.269Z,4
2022-11-28T00:46:27.320Z,4
2022-11-28T00:51:39.121Z,4
2022-11-28T00:56:51.110Z,4
2022-11-28T01:02:09.401Z,4
2022-11-28T01:07:21.272Z,4
2022-11-28T01:12:33.020Z,4
2022-11-28T01:17:44.936Z,4
2022-11-28T01:22:56.870Z,4
2022-11-28T01:28:08.670Z,4
2022-11-28T01:33:20.915Z,4
2022-11-28T01:38:32.950Z,4
2022-11-28T01:43:44.760Z,4
2022-11-28T01:48:57.014Z,4
2022-11-28T01:54:08.911Z,4
2022-11-28T01:59:20.699Z,4
2022-11-28T02:04:32.810Z,4
2022-11-28T02:09:44.554Z,4
2022-11-28T02:14:56.320Z,4
2022-11-28T02:20:08.335Z,3
2022-11-28T02:25:20.198Z,4
2022-11-28T02:30:31.989Z,3
2022-11-28T02:35:44.042Z,4
2022-11-28T02:40:55.869Z,4
2022-11-28T02:46:07.598Z,4
2022-11-28T02:51:19.648Z,4
2022-11-28T02:56:31.627Z,3
2022-11-28T03:01:43.695Z,3
2022-11-28T03:06:55.752Z,3
2022-11-28T03:12:07.543Z,3
2022-11-28T03:17:19.300Z,3
2022-11-28T03:22:31.313Z,3
2022-11-28T03:27:43.149Z,3
2022-11-28T03:32:54.833Z,3
2022-11-28T03:38:06.836Z,3
2022-11-28T03:43:18.860Z,3
2022-11-28T03:48:30.781Z,3
2022-11-28T03:53:42.771Z,3
2022-11-28T03:58:56.060Z,2
2022-11-28T04:04:07.640Z,3
2022-11-28T04:09:19.624Z,3
2022-11-28T04:14:31.480Z,3
2022-11-28T04:19:43.649Z,3
2022-11-28T04:24:55.461Z,3
2022-11-28T04:30:07.480Z,3
2022-11-28T04:35:19.411Z,3
2022-11-28T04:40:31.529Z,3
2022-11-28T04:45:43.753Z,2
2022-11-28T04:50:55.583Z,3
2022-11-28T04:56:07.873Z,3
2022-11-28T05:01:19.949Z,2
2022-11-28T05:06:31.767Z,3
2022-11-28T05:11:43.821Z,3
2022-11-28T05:16:56.108Z,3
2022-11-28T05:22:08.021Z,3
2022-11-28T05:27:20.202Z,3
2022-11-28T05:32:32.351Z,3
2022-11-28T05:37:44.391Z,3
2022-11-28T05:42:56.546Z,3
2022-11-28T05:48:08.502Z,3
2022-11-28T05:53:20.413Z,3
2022-11-28T05:58:32.439Z,3
2022-11-28T06:03:44.301Z,3
2022-11-28T06:08:56.295Z,3
2022-11-28T06:14:08.480Z,3
2022-11-28T06:19:20.962Z,3
2022-11-28T06:24:32.982Z,4
2022-11-28T06:29:45.826Z,3
2022-11-28T06:34:57.671Z,3
2022-11-28T06:40:09.565Z,4
2022-11-28T06:45:21.753Z,4
2022-11-28T06:50:33.606Z,4
2022-11-28T06:55:45.580Z,4
2022-11-28T07:00:58.017Z,4
2022-11-28T07:06:11.367Z,4
2022-11-28T07:11:23.500Z,3
2022-11-28T07:16:35.986Z,4
2022-11-28T07:21:48.011Z,4
2022-11-28T07:26:59.827Z,3
2022-11-28T07:32:12.072Z,4
2022-11-28T07:37:24.141Z,4
2022-11-28T07:42:36.252Z,4
2022-11-28T07:47:48.293Z,4
2022-11-28T07:53:07.801Z,4
2022-11-28T07:58:18.269Z,4
2022-11-28T08:03:30.396Z,4
2022-11-28T08:08:42.443Z,4
2022-11-28T08:13:59.530Z,4
2022-11-28T08:19:13.455Z,4
2022-11-28T08:24:25.481Z,4
2022-11-28T08:29:37.544Z,5
2022-11-28T08:34:49.756Z,5
2022-11-28T08:40:01.872Z,5
2022-11-28T08:45:13.921Z,5
2022-11-28T08:50:26.186Z,6
2022-11-28T08:55:42.484Z,6
2022-11-28T09:00:54.595Z,5
2022-11-28T09:06:06.777Z,6
2022-11-28T09:11:18.650Z,6
2022-11-28T09:16:30.816Z,6
2022-11-28T09:21:42.956Z,6
2022-11-28T09:26:55.114Z,6
2022-11-28T09:32:07.213Z,6
2022-11-28T09:37:19.396Z,6
2022-11-28T09:42:31.260Z,6
2022-11-28T09:47:43.266Z,6
2022-11-28T09:52:55.667Z,6
2022-11-28T09:58:07.946Z,7
2022-11-28T10:03:20.155Z,7
2022-11-28T10:08:32.347Z,6
2022-11-28T10:14:09.200Z,7
2022-11-28T10:19:55.198Z,7
2022-11-28T10:25:04.583Z,7
2022-11-28T10:30:16.403Z,6
2022-11-28T10:35:29.472Z,7
2022-11-28T10:40:41.531Z,7
2022-11-28T10:45:53.996Z,7
2022-11-28T10:51:06.152Z,7
2022-11-28T10:56:18.394Z,7
2022-11-28T11:01:30.746Z,7
2022-11-28T11:07:17.933Z,7
2022-11-28T11:12:35.915Z,8
2022-11-28T11:17:47.852Z,8
2022-11-28T11:23:00.015Z,8
2022-11-28T11:28:12.229Z,8
2022-11-28T11:33:24.272Z,8
2022-11-28T11:38:38.892Z,8
2022-11-28T11:43:50.340Z,8
2022-11-28T11:49:02.361Z,8
2022-11-28T11:54:14.412Z,8
2022-11-28T11:59:26.665Z,8
2022-11-28T12:04:55.465Z,8
2022-11-28T12:10:05.543Z,8
2022-11-28T12:15:17.354Z,8
2022-11-28T12:20:29.473Z,8
2022-11-28T12:25:41.373Z,8
2022-11-28T12:30:53.580Z,8
2022-11-28T12:36:05.841Z,8
2022-11-28T12:41:18.042Z,9
2022-11-28T12:46:30.488Z,9
2022-11-28T12:51:42.742Z,9
2022-11-28T12:56:54.951Z,9
2022-11-28T13:02:10.782Z,9
2022-11-28T13:07:23.243Z,9
2022-11-28T13:12:35.252Z,9
2022-11-28T13:17:47.919Z,9
2022-11-28T13:23:00.043Z,9
2022-11-28T13:28:12.322Z,9
2022-11-28T13:33:24.303Z,9
2022-11-28T13:39:11.069Z,9
2022-11-28T13:44:20.191Z,9
2022-11-28T13:49:31.747Z,9
2022-11-28T13:54:45.151Z,9
2022-11-28T13:59:57.534Z,9
2022-11-28T14:05:09.685Z,8
2022-11-28T14:10:22.176Z,9
2022-11-28T14:15:34.163Z,9
2022-11-28T14:20:46.246Z,9
2022-11-28T14:25:58.423Z,9
2022-11-28T14:31:10.622Z,9
2022-11-28T14:36:22.863Z,9
2022-11-28T14:41:34.953Z,9
2022-11-28T14:46:47.766Z,9
2022-11-28T14:52:40.413Z,8
2022-11-28T14:57:48.363Z,8
2022-11-28T15:03:00.391Z,8
2022-11-28T15:08:12.856Z,8
2022-11-28T15:13:24.712Z,8
2022-11-28T15:18:36.713Z,8
2022-11-28T15:23:51.030Z,8
2022-11-28T15:29:02.430Z,8
2022-11-28T15:34:14.491Z,8
2022-11-28T15:39:26.433Z,8
2022-11-28T15:44:38.999Z,8
2022-11-28T15:49:51.049Z,8
2022-11-28T15:55:02.875Z,8
2022-11-28T16:00:15.092Z,8
2022-11-28T16:05:33.654Z,8
2022-11-28T16:10:48.748Z,8
2022-11-28T16:16:01.492Z,8
2022-11-28T16:21:13.608Z,8
2022-11-28T16:26:25.597Z,8
2022-11-28T16:31:37.787Z,8
2022-11-28T16:36:49.970Z,8
2022-11-28T16:42:02.727Z,8
2022-11-28T16:47:14.738Z,8
2022-11-28T16:52:26.808Z,8
2022-11-28T16:57:38.892Z,7
2022-11-28T17:02:50.559Z,7
2022-11-28T17:08:02.399Z,7
2022-11-28T17:13:14.491Z,7
2022-11-28T17:18:30.643Z,7
2022-11-28T17:23:45.990Z,7
2022-11-28T17:28:57.832Z,7
2022-11-28T17:34:09.819Z,7
2022-11-28T17:39:21.832Z,7
2022-11-28T17:44:34.078Z,7
2022-11-28T17:49:47.795Z,7
2022-11-28T17:55:07.850Z,7
2022-11-28T18:00:21.565Z,7
2022-11-28T18:05:33.488Z,7
2022-11-28T18:10:45.278Z,7
2022-11-28T18:15:57.481Z,7
2022-11-28T18:21:10.439Z,7
2022-11-28T18:26:23.318Z,7
2022-11-28T18:31:36.895Z,7
2022-11-28T18:36:48.829Z,7
2022-11-28T18:42:00.690Z,7
2022-11-28T18:47:12.758Z,7
2022-11-28T18:52:24.606Z,7
2022-11-28T18:57:36.668Z,7
2022-11-28T19:02:48.597Z,7
2022-11-28T19:08:00.652Z,7
2022-11-28T19:13:12.709Z,7
2022-11-28T19:18:24.738Z,7
2022-11-28T19:23:36.608Z,7
2022-11-28T19:28:48.581Z,7
2022-11-28T19:34:02.580Z,7
2022-11-28T19:39:14.150Z,7
2022-11-28T19:44:26.651Z,7
2022-11-28T19:49:38.814Z,7
2022-11-28T19:54:52.642Z,7
2022-11-28T20:00:04.531Z,7
2022-11-28T20:05:16.585Z,7
2022-11-28T20:10:29.381Z,7
2022-11-28T20:15:41.881Z,7
2022-11-28T20:20:54.049Z,7
2022-11-28T20:26:06.021Z,7
2022-11-28T20:31:18.283Z,7
2022-11-28T20:36:30.560Z,6
2022-11-28T20:41:42.592Z,7
2022-11-28T20:46:58.567Z,7
2022-11-28T20:52:14.724Z,7
2022-11-28T20:57:26.889Z,7
2022-11-28T21:02:39.291Z,7
2022-11-28T21:07:51.592Z,7
2022-11-28T21:13:03.771Z,7
2022-11-28T21:18:15.881Z,7
2022-11-28T21:23:29.028Z,7
2022-11-28T21:28:44.742Z,7
2022-11-28T21:33:59.801Z,7
2022-11-28T21:39:11.958Z,7
2022-11-28T21:44:24.141Z,7
2022-11-28T21:49:36.353Z,6
2022-11-28T21:54:49.124Z,7
2022-11-28T22:00:01.924Z,7
2022-11-28T22:05:14.082Z,7
2022-11-28T22:10:26.110Z,7
2022-11-28T22:15:38.871Z,7
2022-11-28T22:20:54.407Z,7
2022-11-28T22:26:06.064Z,7
2022-11-28T22:31:18.439Z,7
2022-11-28T22:36:32.521Z,7
2022-11-28T22:41:49.444Z,7
2022-11-28T22:47:01.702Z,7
2022-11-28T22:52:13.851Z,7
2022-11-28T22:57:25.895Z,7
2022-11-28T23:02:38.451Z,7
2022-11-28T23:07:50.853Z,7
2022-11-28T23:13:03.077Z,8
2022-11-28T23:18:15.492Z,8
2022-11-28T23:23:27.521Z,7
2022-11-28T23:28:39.580Z,7
2022-11-28T23:33:51.513Z,7
2022-11-28T23:39:03.261Z,7
2022-11-28T23:44:15.227Z,7
2022-11-28T23:49:27.231Z,7
2022-11-28T23:54:39.301Z,7
2022-11-28T23:59:51.358Z,7
